Sultan Atasoy — TCYG9 — position and weather

sailwx.info

Track history (hours):
 
Tides and Currents Weather Stations Pressure Air Temp Water Temp Dewpoint Dewpoint Depression Visibility Wind Speed Wind Dir Waves Ship Positions

Sultan Atasoy

Last reported at 2017-Aug-17 08:53 UTC. Time now 2017-Aug-17 09:52 UTC.
Position N 46°34' E 031°02'.

Length 109 m; draft 4.2 m.

Type: Ship. MMSI: 271040963.

Date/timePositionNaut miles runAvg speedWind from/ knotsBaromVisibWave heightAir tempDewpointWater temp
2017-Aug-17 08:53N 46°34' E 031°02'0 0.0
2017-Aug-17 08:29N 46°34' E 031°02'0 0.0
2017-Aug-17 07:59N 46°34' E 031°02'0 0.0
2017-Aug-17 07:29N 46°34' E 031°02'0 0.0
2017-Aug-17 06:59N 46°34' E 031°02'0 0.0
2017-Aug-17 06:29N 46°34' E 031°02'0 0.0
2017-Aug-17 05:59N 46°34' E 031°02'0 0.0
2017-Aug-17 05:29N 46°34' E 031°02'0 0.0
2017-Aug-17 04:59N 46°34' E 031°02'0 0.1
2017-Aug-17 04:29N 46°34' E 031°02'2 4.2
2017-Aug-17 04:00N 46°33' E 030°59'5 9.2
2017-Aug-17 03:30N 46°29' E 030°57'510.2
2017-Aug-17 03:00N 46°24' E 030°57'5 9.2
2017-Aug-17 02:30N 46°19' E 030°57'5 9.6
2017-Aug-17 02:00N 46°15' E 031°00'5 9.7
2017-Aug-17 01:30N 46°11' E 031°05'4 8.7
2017-Aug-17 01:00N 46°07' E 031°07'5 9.1
2017-Aug-17 00:30N 46°03' E 031°06'5 9.1
2017-Aug-17 00:00N 45°59' E 031°04'5 9.2
2017-Aug-16 23:30N 45°54' E 031°02'5 9.2
2017-Aug-16 23:00N 45°50' E 031°00'5 9.2
2017-Aug-16 22:30N 45°45' E 030°58'5 9.1
2017-Aug-16 22:00N 45°41' E 030°56'5 9.3
2017-Aug-16 21:30N 45°37' E 030°54'5 9.3
2017-Aug-16 20:57N 45°32' E 030°52'7 9.3
2017-Aug-16 20:11N 45°25' E 030°49'2 9.2
2017-Aug-16 20:00N 45°23' E 030°49'5 9.3
2017-Aug-16 19:30N 45°19' E 030°47'5 9.4
2017-Aug-16 19:00N 45°14' E 030°45'5 9.4
2017-Aug-16 18:30N 45°10' E 030°43'5 9.4
2017-Aug-16 18:00N 45°05' E 030°42'5 9.3
2017-Aug-16 17:30N 45°01' E 030°40'510.0
2017-Aug-16 17:00N 44°56' E 030°38'5 9.7
2017-Aug-16 16:30N 44°51' E 030°36'5 9.1
2017-Aug-16 16:00N 44°47' E 030°34'4 8.9
2017-Aug-16 15:30N 44°43' E 030°32'4 8.8
2017-Aug-16 15:00N 44°38' E 030°30'510.3
2017-Aug-16 14:30N 44°34' E 030°28'510.2
2017-Aug-16 14:00N 44°29' E 030°25'510.0
2017-Aug-16 13:30N 44°24' E 030°23'510.1
2017-Aug-16 13:00N 44°19' E 030°21'  
2017-Aug-09 00:33N 40°52' E 029°11'0 0.0
2017-Aug-09 00:27N 40°52' E 029°11'0 0.0
2017-Aug-08 23:57N 40°52' E 029°11'0 0.0
2017-Aug-08 23:27N 40°52' E 029°11'0 0.0
2017-Aug-08 22:57N 40°52' E 029°11'0 0.0
2017-Aug-08 22:27N 40°52' E 029°11'0 0.0
2017-Aug-08 21:57N 40°52' E 029°11'0 0.0
2017-Aug-08 21:27N 40°52' E 029°11'0 0.0
2017-Aug-08 20:57N 40°52' E 029°11'0 0.0
2017-Aug-08 20:27N 40°52' E 029°11'0 0.0
2017-Aug-08 19:57N 40°52' E 029°11'0 0.0
2017-Aug-08 19:27N 40°52' E 029°11'0 0.0
2017-Aug-08 18:57N 40°52' E 029°11'0 0.0
2017-Aug-08 18:27N 40°52' E 029°11'0 0.0
2017-Aug-08 17:51N 40°52' E 029°11'0 0.0
2017-Aug-08 17:21N 40°52' E 029°11'0 0.0
2017-Aug-08 16:57N 40°52' E 029°11'0 0.0
2017-Aug-08 16:27N 40°52' E 029°11'0 0.0
2017-Aug-08 15:57N 40°52' E 029°11'0 0.0
2017-Aug-08 15:27N 40°52' E 029°11'0 0.1
2017-Aug-08 14:57N 40°52' E 029°11'0 0.1
2017-Aug-08 14:27N 40°52' E 029°11'0 0.0
2017-Aug-08 13:57N 40°52' E 029°11'0 0.0
2017-Aug-08 13:15N 40°52' E 029°11'0 0.0
2017-Aug-08 12:57N 40°52' E 029°11'0 0.0
2017-Aug-08 12:27N 40°52' E 029°11'0 0.0
2017-Aug-08 11:57N 40°52' E 029°11'0 0.0
2017-Aug-08 11:27N 40°52' E 029°11'0 0.0
2017-Aug-08 10:57N 40°52' E 029°11'0 0.0
2017-Aug-08 10:27N 40°52' E 029°11'0 0.0
2017-Aug-08 09:51N 40°52' E 029°11'0 0.0
2017-Aug-08 09:09N 40°52' E 029°11'0 0.1
2017-Aug-08 08:51N 40°52' E 029°11'0 0.0
2017-Aug-08 08:21N 40°52' E 029°11'0 0.0
2017-Aug-08 07:51N 40°52' E 029°11'0 0.0
2017-Aug-08 07:27N 40°52' E 029°11'0 0.0
2017-Aug-08 06:51N 40°52' E 029°11'0 0.0
2017-Aug-08 06:27N 40°52' E 029°11'0 0.1
2017-Aug-08 05:21N 40°52' E 029°11'0 0.0
2017-Aug-08 04:57N 40°52' E 029°11'0 0.0
2017-Aug-08 04:21N 40°52' E 029°11'0 0.0
2017-Aug-08 03:51N 40°52' E 029°11'0 0.0
2017-Aug-08 03:27N 40°52' E 029°11'0 0.0
2017-Aug-08 02:51N 40°52' E 029°11'0 0.0
2017-Aug-08 02:27N 40°52' E 029°11'0 0.0
2017-Aug-08 01:51N 40°52' E 029°11'0 0.0
2017-Aug-08 01:27N 40°52' E 029°11'0 0.0
2017-Aug-08 00:51N 40°52' E 029°11'0 0.0
2017-Aug-08 00:27N 40°52' E 029°11'0 0.0
2017-Aug-07 23:57N 40°52' E 029°11'0 0.0
2017-Aug-07 23:21N 40°52' E 029°11'0 0.0
2017-Aug-07 22:57N 40°52' E 029°11'0 0.1
2017-Aug-07 22:15N 40°52' E 029°11'0 0.0
2017-Aug-07 21:57N 40°52' E 029°11'0 0.0
2017-Aug-07 20:57N 40°52' E 029°11'0 0.0
2017-Aug-07 20:27N 40°52' E 029°11'0 0.0
2017-Aug-07 19:57N 40°52' E 029°11'0 0.0
2017-Aug-07 19:21N 40°52' E 029°11'0 0.1
2017-Aug-07 18:57N 40°52' E 029°11'0 0.1
2017-Aug-07 18:27N 40°52' E 029°11'2 4.0
2017-Aug-07 18:00N 40°50' E 029°10'510.2
2017-Aug-07 17:30N 40°49' E 029°03'510.0
2017-Aug-07 17:00N 40°50' E 028°57'5 9.7
2017-Aug-07 16:30N 40°51' E 028°51'  
Track history (hours):
 
Tides and Currents Weather Stations Pressure Air Temp Water Temp Dewpoint Dewpoint Depression Visibility Wind Speed Wind Dir Waves Ship Positions

Sultan Atasoy

Last reported at 2017-Aug-17 08:53 UTC. Time now 2017-Aug-17 09:52 UTC.
Position N 46°34' E 031°02'.

Length 109 m; draft 4.2 m.

Type: Ship. MMSI: 271040963.

Date/timePositionNaut miles runAvg speedWind from/ knotsBaromVisibWave heightAir tempDewpointWater temp
2017-Aug-17 08:53N 46°34' E 031°02'0 0.0
2017-Aug-17 08:29N 46°34' E 031°02'0 0.0
2017-Aug-17 07:59N 46°34' E 031°02'0 0.0
2017-Aug-17 07:29N 46°34' E 031°02'0 0.0
2017-Aug-17 06:59N 46°34' E 031°02'0 0.0
2017-Aug-17 06:29N 46°34' E 031°02'0 0.0
2017-Aug-17 05:59N 46°34' E 031°02'0 0.0
2017-Aug-17 05:29N 46°34' E 031°02'0 0.0
2017-Aug-17 04:59N 46°34' E 031°02'0 0.1
2017-Aug-17 04:29N 46°34' E 031°02'2 4.2
2017-Aug-17 04:00N 46°33' E 030°59'5 9.2
2017-Aug-17 03:30N 46°29' E 030°57'510.2
2017-Aug-17 03:00N 46°24' E 030°57'5 9.2
2017-Aug-17 02:30N 46°19' E 030°57'5 9.6
2017-Aug-17 02:00N 46°15' E 031°00'5 9.7
2017-Aug-17 01:30N 46°11' E 031°05'4 8.7
2017-Aug-17 01:00N 46°07' E 031°07'5 9.1
2017-Aug-17 00:30N 46°03' E 031°06'5 9.1
2017-Aug-17 00:00N 45°59' E 031°04'5 9.2
2017-Aug-16 23:30N 45°54' E 031°02'5 9.2
2017-Aug-16 23:00N 45°50' E 031°00'5 9.2
2017-Aug-16 22:30N 45°45' E 030°58'5 9.1
2017-Aug-16 22:00N 45°41' E 030°56'5 9.3
2017-Aug-16 21:30N 45°37' E 030°54'5 9.3
2017-Aug-16 20:57N 45°32' E 030°52'7 9.3
2017-Aug-16 20:11N 45°25' E 030°49'2 9.2
2017-Aug-16 20:00N 45°23' E 030°49'5 9.3
2017-Aug-16 19:30N 45°19' E 030°47'5 9.4
2017-Aug-16 19:00N 45°14' E 030°45'5 9.4
2017-Aug-16 18:30N 45°10' E 030°43'5 9.4
2017-Aug-16 18:00N 45°05' E 030°42'5 9.3
2017-Aug-16 17:30N 45°01' E 030°40'510.0
2017-Aug-16 17:00N 44°56' E 030°38'5 9.7
2017-Aug-16 16:30N 44°51' E 030°36'5 9.1
2017-Aug-16 16:00N 44°47' E 030°34'4 8.9
2017-Aug-16 15:30N 44°43' E 030°32'4 8.8
2017-Aug-16 15:00N 44°38' E 030°30'510.3
2017-Aug-16 14:30N 44°34' E 030°28'510.2
2017-Aug-16 14:00N 44°29' E 030°25'510.0
2017-Aug-16 13:30N 44°24' E 030°23'510.1
2017-Aug-16 13:00N 44°19' E 030°21'  
2017-Aug-09 00:33N 40°52' E 029°11'0 0.0
2017-Aug-09 00:27N 40°52' E 029°11'0 0.0
2017-Aug-08 23:57N 40°52' E 029°11'0 0.0
2017-Aug-08 23:27N 40°52' E 029°11'0 0.0
2017-Aug-08 22:57N 40°52' E 029°11'0 0.0
2017-Aug-08 22:27N 40°52' E 029°11'0 0.0
2017-Aug-08 21:57N 40°52' E 029°11'0 0.0
2017-Aug-08 21:27N 40°52' E 029°11'0 0.0
2017-Aug-08 20:57N 40°52' E 029°11'0 0.0
2017-Aug-08 20:27N 40°52' E 029°11'0 0.0
2017-Aug-08 19:57N 40°52' E 029°11'0 0.0
2017-Aug-08 19:27N 40°52' E 029°11'0 0.0
2017-Aug-08 18:57N 40°52' E 029°11'0 0.0
2017-Aug-08 18:27N 40°52' E 029°11'0 0.0
2017-Aug-08 17:51N 40°52' E 029°11'0 0.0
2017-Aug-08 17:21N 40°52' E 029°11'0 0.0
2017-Aug-08 16:57N 40°52' E 029°11'0 0.0
2017-Aug-08 16:27N 40°52' E 029°11'0 0.0
2017-Aug-08 15:57N 40°52' E 029°11'0 0.0
2017-Aug-08 15:27N 40°52' E 029°11'0 0.1
2017-Aug-08 14:57N 40°52' E 029°11'0 0.1
2017-Aug-08 14:27N 40°52' E 029°11'0 0.0
2017-Aug-08 13:57N 40°52' E 029°11'0 0.0
2017-Aug-08 13:15N 40°52' E 029°11'0 0.0
2017-Aug-08 12:57N 40°52' E 029°11'0 0.0
2017-Aug-08 12:27N 40°52' E 029°11'0 0.0
2017-Aug-08 11:57N 40°52' E 029°11'0 0.0
2017-Aug-08 11:27N 40°52' E 029°11'0 0.0
2017-Aug-08 10:57N 40°52' E 029°11'0 0.0
2017-Aug-08 10:27N 40°52' E 029°11'0 0.0
2017-Aug-08 09:51N 40°52' E 029°11'0 0.0
2017-Aug-08 09:09N 40°52' E 029°11'0 0.1
2017-Aug-08 08:51N 40°52' E 029°11'0 0.0
2017-Aug-08 08:21N 40°52' E 029°11'0 0.0
2017-Aug-08 07:51N 40°52' E 029°11'0 0.0
2017-Aug-08 07:27N 40°52' E 029°11'0 0.0
2017-Aug-08 06:51N 40°52' E 029°11'0 0.0
2017-Aug-08 06:27N 40°52' E 029°11'0 0.1
2017-Aug-08 05:21N 40°52' E 029°11'0 0.0
2017-Aug-08 04:57N 40°52' E 029°11'0 0.0
2017-Aug-08 04:21N 40°52' E 029°11'0 0.0
2017-Aug-08 03:51N 40°52' E 029°11'0 0.0
2017-Aug-08 03:27N 40°52' E 029°11'0 0.0
2017-Aug-08 02:51N 40°52' E 029°11'0 0.0
2017-Aug-08 02:27N 40°52' E 029°11'0 0.0
2017-Aug-08 01:51N 40°52' E 029°11'0 0.0
2017-Aug-08 01:27N 40°52' E 029°11'0 0.0
2017-Aug-08 00:51N 40°52' E 029°11'0 0.0
2017-Aug-08 00:27N 40°52' E 029°11'0 0.0
2017-Aug-07 23:57N 40°52' E 029°11'0 0.0
2017-Aug-07 23:21N 40°52' E 029°11'0 0.0
2017-Aug-07 22:57N 40°52' E 029°11'0 0.1
2017-Aug-07 22:15N 40°52' E 029°11'0 0.0
2017-Aug-07 21:57N 40°52' E 029°11'0 0.0
2017-Aug-07 20:57N 40°52' E 029°11'0 0.0
2017-Aug-07 20:27N 40°52' E 029°11'0 0.0
2017-Aug-07 19:57N 40°52' E 029°11'0 0.0
2017-Aug-07 19:21N 40°52' E 029°11'0 0.1
2017-Aug-07 18:57N 40°52' E 029°11'0 0.1
2017-Aug-07 18:27N 40°52' E 029°11'2 4.0
2017-Aug-07 18:00N 40°50' E 029°10'510.2
2017-Aug-07 17:30N 40°49' E 029°03'510.0
2017-Aug-07 17:00N 40°50' E 028°57'5 9.7
2017-Aug-07 16:30N 40°51' E 028°51'  

Dump ship's entire track history